METAR ET TAF INFORMATION
METAR FOR KPTV
ADDS - METARS form results

(1937 UTC 19 March 2019)
Data provider http://aviationweather.gov/metar/data/
 
METAR text: KPTV 191856Z AUTO 00000KT 10SM CLR 22/08 A2991 RMK AO2 SLP139 T02220083
Conditions at: KPTV (PORTERVILLE , CA, US) observed 1856 UTC 19 March 2019
Temperature: 22.2°C (72°F)
Dewpoint: 8.3°C (47°F) [RH = 41%]
Pressure (altimeter): 29.91 inches Hg (1013.0 mb)
[Sea-level pressure: 1013.9 mb]
Winds: calm
Visibility: 10 or more miles (16+ km)
Ceiling: at least 12,000 feet AGL
Clouds: sky clear below 12,000 feet AGL
Weather: automated observation with no human augmentation;
there may or may not be significant weather present at this time

 AÉROPORT DE AÉROPORT

 INFORMATIONS DE PISTE
Piste 12 Longueur de la piste 5908 ft Largeur de la piste 150 ft
Élévation de la piste 430 ft Seuil de la piste déplacés 0 ft Runway heading 135
Piste 30 Longueur de la piste 5908 ft Largeur de la piste 150 ft
Élévation de la piste 442 ft Seuil de la piste déplacés 0 ft Runway heading 315

 AÉROPORT FRÉQUENCES
Type A/D Nom BAKERSFIEL Féquence 120.5 MHZ
Type AWOS Nom AWOS 3 Féquence 134.625 MHZ
Type RDO Nom RANCHO RDO Féquence 109.2 MHZ
Type UNIC Nom CTAF/UNICO Féquence 122.8 MHZ

 SIDA DE NAVIGATION



Powered by Virtual Airlines Manager [v2.6.2]